createdAt,value
2022-11-30T00:02:43.143Z,21.38
2022-11-30T00:05:47.410Z,20.55
2022-11-30T00:08:50.411Z,20.38
2022-11-30T00:11:55.763Z,22.35
2022-11-30T00:14:59.788Z,21.97
2022-11-30T00:18:02.520Z,21.88
2022-11-30T00:21:09.848Z,22.45
2022-11-30T00:24:12.668Z,22.15
2022-11-30T00:27:18.045Z,23.80
2022-11-30T00:30:20.934Z,22.03
2022-11-30T00:33:24.932Z,22.85
2022-11-30T00:36:28.901Z,23.80
2022-11-30T00:39:35.937Z,21.23
2022-11-30T00:42:41.286Z,23.77
2022-11-30T00:45:44.103Z,22.43
2022-11-30T00:48:48.371Z,21.27
2022-11-30T00:51:51.148Z,22.30
2022-11-30T00:54:53.811Z,22.90
2022-11-30T00:57:59.230Z,22.75
2022-11-30T01:01:02.156Z,21.70
2022-11-30T01:04:07.221Z,23.15
2022-11-30T01:07:10.029Z,22.13
2022-11-30T01:10:14.051Z,21.10
2022-11-30T01:13:18.120Z,22.50
2022-11-30T01:16:24.801Z,23.10
2022-11-30T01:19:28.875Z,22.67
2022-11-30T01:22:31.618Z,22.50
2022-11-30T01:25:35.522Z,23.23
2022-11-30T01:28:40.845Z,21.33
2022-11-30T01:31:44.707Z,22.33
2022-11-30T01:34:47.564Z,21.63
2022-11-30T01:41:15.560Z,22.13
2022-11-30T01:44:53.027Z,23.67
2022-11-30T01:47:58.338Z,24.17
2022-11-30T01:51:03.009Z,24.38
2022-11-30T01:54:09.635Z,23.83
2022-11-30T01:57:17.574Z,21.88
2022-11-30T02:00:22.276Z,25.15
2022-11-30T02:03:33.518Z,22.87
2022-11-30T02:06:37.458Z,22.48
2022-11-30T02:09:44.028Z,23.90
2022-11-30T02:13:04.831Z,21.38
2022-11-30T02:16:19.620Z,23.05
2022-11-30T02:19:49.772Z,21.23
2022-11-30T02:23:10.367Z,22.73
2022-11-30T02:26:30.070Z,24.05
2022-11-30T02:29:40.065Z,22.02
2022-11-30T02:32:49.235Z,22.67
2022-11-30T02:35:56.624Z,24.20
2022-11-30T02:39:00.897Z,21.33
2022-11-30T02:42:04.777Z,24.15
2022-11-30T02:45:10.500Z,22.38
2022-11-30T02:48:18.330Z,23.25
2022-11-30T02:51:27.394Z,21.93
2022-11-30T02:54:30.161Z,22.90
2022-11-30T02:57:34.269Z,21.80
2022-11-30T03:00:39.609Z,20.00
2022-11-30T03:03:42.299Z,22.05
2022-11-30T03:06:46.190Z,23.87
2022-11-30T03:09:48.918Z,21.95
2022-11-30T03:12:52.790Z,25.77
2022-11-30T03:15:56.865Z,23.25
2022-11-30T03:19:01.463Z,21.27
2022-11-30T03:22:04.335Z,20.47
2022-11-30T03:25:08.930Z,23.75
2022-11-30T03:28:11.654Z,23.30
2022-11-30T03:31:16.982Z,21.95
2022-11-30T03:34:20.990Z,22.25
2022-11-30T03:37:23.718Z,21.43
2022-11-30T03:40:27.608Z,22.65
2022-11-30T03:43:30.863Z,21.63
2022-11-30T03:46:36.216Z,23.48
2022-11-30T03:49:38.951Z,21.73
2022-11-30T03:52:42.823Z,22.13
2022-11-30T03:55:45.592Z,22.73
2022-11-30T03:58:49.473Z,23.73
2022-11-30T04:01:54.832Z,23.30
2022-11-30T04:04:57.576Z,23.85
2022-11-30T04:08:01.516Z,22.20
2022-11-30T04:11:05.209Z,23.27
2022-11-30T04:14:09.203Z,24.02
2022-11-30T04:17:14.451Z,21.33
2022-11-30T04:20:17.270Z,24.10
2022-11-30T04:26:43.573Z,21.52
2022-11-30T04:29:47.555Z,25.02
2022-11-30T04:32:51.629Z,22.35
2022-11-30T04:35:57.459Z,22.58
2022-11-30T04:39:01.310Z,22.40
2022-11-30T04:42:04.107Z,23.17
2022-11-30T04:45:07.695Z,23.70
2022-11-30T04:48:12.259Z,22.75
2022-11-30T04:51:16.126Z,22.20
2022-11-30T04:54:18.887Z,23.47
2022-11-30T04:57:22.804Z,24.42
2022-11-30T05:00:25.936Z,24.70
2022-11-30T05:03:31.191Z,24.17
2022-11-30T05:06:35.041Z,24.67
2022-11-30T05:09:37.788Z,21.50
2022-11-30T05:12:40.484Z,20.60
2022-11-30T05:15:43.188Z,22.90
2022-11-30T05:18:47.375Z,22.85
2022-11-30T05:21:51.343Z,23.95
2022-11-30T05:24:54.034Z,22.97
2022-11-30T05:27:57.897Z,24.10
2022-11-30T05:31:04.898Z,24.15
2022-11-30T05:34:10.211Z,21.88
2022-11-30T05:37:12.871Z,23.75
2022-11-30T05:40:15.855Z,22.60
2022-11-30T05:43:19.549Z,23.97
2022-11-30T05:46:23.468Z,22.98
2022-11-30T05:49:27.598Z,22.30
2022-11-30T05:52:31.488Z,23.17
2022-11-30T05:55:34.658Z,22.73
2022-11-30T05:58:40.329Z,23.47
2022-11-30T06:01:44.328Z,22.58
2022-11-30T06:04:48.744Z,22.27
2022-11-30T06:07:53.028Z,24.00
2022-11-30T06:10:55.726Z,21.90
2022-11-30T06:13:59.669Z,21.53
2022-11-30T06:17:03.638Z,23.58
2022-11-30T06:20:09.088Z,22.85
2022-11-30T06:23:11.808Z,22.42
2022-11-30T06:26:14.505Z,23.83
2022-11-30T06:29:20.035Z,22.00
2022-11-30T06:32:22.720Z,23.33
2022-11-30T06:35:28.007Z,23.88
2022-11-30T06:38:30.874Z,24.55
2022-11-30T06:41:34.733Z,22.73
2022-11-30T06:44:38.756Z,21.80
2022-11-30T06:47:41.601Z,22.05
2022-11-30T06:50:50.027Z,23.98
2022-11-30T06:53:53.031Z,23.65
2022-11-30T06:56:57.795Z,21.20
2022-11-30T07:00:00.493Z,21.63
2022-11-30T07:06:26.187Z,21.83
2022-11-30T07:09:30.044Z,20.10
2022-11-30T07:12:35.678Z,22.43
2022-11-30T07:15:39.719Z,21.43
2022-11-30T07:18:42.432Z,20.70
2022-11-30T07:21:47.731Z,19.58
2022-11-30T07:25:08.164Z,20.77
2022-11-30T07:28:12.045Z,21.23
2022-11-30T07:31:16.846Z,22.80
2022-11-30T07:34:21.312Z,21.45
2022-11-30T07:37:26.593Z,20.23
2022-11-30T07:40:30.481Z,19.88
2022-11-30T07:43:33.566Z,20.40
2022-11-30T07:46:37.547Z,22.33
2022-11-30T07:49:40.262Z,20.80
2022-11-30T07:52:45.470Z,20.73
2022-11-30T07:55:55.485Z,20.92
2022-11-30T07:59:01.801Z,20.30
2022-11-30T08:02:04.662Z,21.27
2022-11-30T08:05:11.204Z,21.92
2022-11-30T08:08:15.378Z,20.15
2022-11-30T08:11:19.919Z,20.65
2022-11-30T08:14:23.825Z,21.07
2022-11-30T08:17:26.586Z,20.50
2022-11-30T08:20:30.519Z,20.35
2022-11-30T08:23:36.696Z,20.15
2022-11-30T08:26:40.678Z,20.25
2022-11-30T08:29:43.340Z,20.67
2022-11-30T08:32:47.386Z,19.03
2022-11-30T08:35:50.119Z,20.15
2022-11-30T08:38:55.546Z,21.48
2022-11-30T08:41:58.420Z,22.08
2022-11-30T08:45:01.461Z,22.10
2022-11-30T08:48:06.183Z,19.60
2022-11-30T08:51:12.404Z,19.98
2022-11-30T08:54:16.494Z,20.70
2022-11-30T08:57:22.698Z,20.75
2022-11-30T09:00:25.470Z,21.00
2022-11-30T09:03:29.428Z,20.30
2022-11-30T09:06:32.217Z,19.52
2022-11-30T09:09:36.844Z,21.30
2022-11-30T09:12:42.402Z,21.33
2022-11-30T09:15:45.179Z,21.13
2022-11-30T09:18:49.895Z,20.10
2022-11-30T09:21:52.971Z,20.02
2022-11-30T09:24:58.435Z,20.85
2022-11-30T09:28:01.148Z,19.70
2022-11-30T09:31:06.871Z,18.80
2022-11-30T09:34:12.717Z,18.77
2022-11-30T09:37:15.475Z,17.85
2022-11-30T09:40:22.520Z,21.70
2022-11-30T09:43:37.834Z,19.50
2022-11-30T09:46:43.751Z,19.50
2022-11-30T09:49:48.558Z,20.83
2022-11-30T09:52:55.797Z,19.95
2022-11-30T09:56:02.726Z,20.73
2022-11-30T09:59:13.976Z,18.73
2022-11-30T10:02:18.820Z,18.80
2022-11-30T10:05:25.344Z,19.80
2022-11-30T10:08:50.603Z,20.23
2022-11-30T10:12:03.661Z,18.45
2022-11-30T10:15:19.716Z,19.60
2022-11-30T10:18:28.767Z,18.77
2022-11-30T10:21:46.089Z,18.90
2022-11-30T10:25:11.643Z,18.98
2022-11-30T10:28:45.647Z,18.67
2022-11-30T10:31:45.647Z,20.60
2022-11-30T10:34:52.686Z,21.47
2022-11-30T10:37:58.465Z,18.87
2022-11-30T10:41:06.575Z,20.70
2022-11-30T10:44:19.481Z,21.15
2022-11-30T10:47:28.484Z,21.48
2022-11-30T10:50:32.621Z,22.63
2022-11-30T10:53:36.666Z,21.30
2022-11-30T10:56:39.408Z,22.15
2022-11-30T10:59:48.239Z,21.95
2022-11-30T11:02:53.454Z,21.05
2022-11-30T11:06:09.042Z,23.23
2022-11-30T11:09:30.033Z,22.50
2022-11-30T11:12:34.191Z,23.90
2022-11-30T11:15:38.738Z,21.25
2022-11-30T11:18:53.770Z,23.23
2022-11-30T11:21:57.771Z,21.90
2022-11-30T11:25:12.663Z,22.73
2022-11-30T11:28:20.193Z,21.05
2022-11-30T11:31:37.555Z,22.58
2022-11-30T11:34:40.377Z,21.48
2022-11-30T11:37:53.373Z,22.17
2022-11-30T11:40:58.668Z,23.87
2022-11-30T11:44:04.604Z,23.50
2022-11-30T11:47:10.258Z,24.10
2022-11-30T11:51:05.008Z,21.15
2022-11-30T11:53:57.777Z,23.87
2022-11-30T11:57:00.717Z,24.37
2022-11-30T12:00:12.495Z,24.33
2022-11-30T12:03:27.984Z,24.15
2022-11-30T12:06:35.245Z,21.73
2022-11-30T12:09:46.620Z,23.60
2022-11-30T12:12:54.690Z,25.00
2022-11-30T12:16:11.026Z,24.02
2022-11-30T12:19:21.471Z,23.65
2022-11-30T12:22:50.731Z,24.00
2022-11-30T12:26:06.450Z,23.47
2022-11-30T12:29:26.436Z,23.00
2022-11-30T12:32:40.802Z,23.70
2022-11-30T12:36:04.411Z,22.77
2022-11-30T12:39:10.818Z,22.58
2022-11-30T12:42:21.878Z,24.17
2022-11-30T12:45:30.577Z,24.70
2022-11-30T12:48:41.835Z,24.25
2022-11-30T12:51:54.246Z,23.92
2022-11-30T12:55:05.019Z,24.20
2022-11-30T12:58:18.375Z,24.40
2022-11-30T13:01:35.392Z,23.57
2022-11-30T13:04:43.031Z,25.23
2022-11-30T13:07:52.395Z,25.25
2022-11-30T13:14:24.029Z,23.90
2022-11-30T13:17:28.923Z,25.60
2022-11-30T13:20:38.737Z,23.63
2022-11-30T13:23:50.120Z,24.75
2022-11-30T13:26:58.796Z,26.05
2022-11-30T13:30:21.553Z,25.83
2022-11-30T13:33:48.112Z,24.70
2022-11-30T13:36:51.011Z,25.13
2022-11-30T13:39:56.750Z,25.85
2022-11-30T13:42:59.670Z,24.75
2022-11-30T13:46:20.016Z,25.20
2022-11-30T13:49:27.325Z,25.57
2022-11-30T13:53:06.285Z,24.50
2022-11-30T13:56:35.607Z,25.08
2022-11-30T13:59:47.782Z,24.95
2022-11-30T14:02:54.174Z,25.37
2022-11-30T14:09:57.031Z,25.08
2022-11-30T14:13:03.720Z,25.25
2022-11-30T14:16:21.748Z,24.80
2022-11-30T14:19:25.897Z,26.50
2022-11-30T14:22:30.784Z,26.13
2022-11-30T14:25:36.715Z,27.73
2022-11-30T14:28:48.189Z,27.08
2022-11-30T14:31:58.035Z,26.17
2022-11-30T14:35:10.317Z,27.03
2022-11-30T14:38:26.265Z,24.97
2022-11-30T14:41:32.311Z,23.40
2022-11-30T14:44:40.263Z,23.13
2022-11-30T14:47:48.114Z,24.90
2022-11-30T14:50:54.793Z,23.83
2022-11-30T14:54:06.329Z,24.60
2022-11-30T14:57:22.580Z,23.45
2022-11-30T15:00:27.098Z,24.05
2022-11-30T15:03:38.922Z,25.73
2022-11-30T15:06:44.364Z,27.07
2022-11-30T15:09:50.967Z,25.63
2022-11-30T15:12:55.178Z,24.08
2022-11-30T15:15:59.573Z,24.48
2022-11-30T15:19:18.963Z,25.25
2022-11-30T15:22:23.950Z,25.37
2022-11-30T15:25:35.355Z,20.53
2022-11-30T15:28:43.676Z,22.23
2022-11-30T15:35:30.737Z,23.30
2022-11-30T15:38:52.955Z,23.97
2022-11-30T15:41:58.506Z,21.87
2022-11-30T15:45:22.559Z,23.77
2022-11-30T15:48:33.462Z,22.33
2022-11-30T15:51:41.864Z,22.58
2022-11-30T15:54:48.228Z,22.93
2022-11-30T15:58:03.621Z,23.20
2022-11-30T16:01:12.171Z,20.83
2022-11-30T16:04:17.646Z,21.92
2022-11-30T16:07:20.594Z,23.13
2022-11-30T16:10:26.471Z,21.77
2022-11-30T16:13:32.032Z,19.63
2022-11-30T16:16:36.088Z,21.60
2022-11-30T16:19:40.203Z,20.73
2022-11-30T16:22:44.682Z,21.30
2022-11-30T16:25:49.017Z,20.93
2022-11-30T16:28:52.969Z,21.33
2022-11-30T16:31:55.756Z,21.17
2022-11-30T16:35:00.290Z,21.15
2022-11-30T16:38:03.980Z,20.93
2022-11-30T16:41:15.584Z,19.80
2022-11-30T16:44:19.622Z,19.65
2022-11-30T16:47:22.388Z,20.52
2022-11-30T16:50:27.719Z,21.38
2022-11-30T16:53:31.743Z,20.10
2022-11-30T16:56:35.704Z,19.30
2022-11-30T16:59:38.417Z,20.23
2022-11-30T17:02:47.102Z,19.48
2022-11-30T17:05:51.254Z,19.13
2022-11-30T17:08:54.201Z,20.17
2022-11-30T17:11:58.349Z,20.03
2022-11-30T17:15:01.115Z,18.23
2022-11-30T17:18:05.139Z,21.88
2022-11-30T17:21:14.231Z,21.23
2022-11-30T17:24:18.323Z,19.60
2022-11-30T17:27:22.282Z,20.23
2022-11-30T17:30:26.451Z,20.60
2022-11-30T17:33:32.465Z,19.20
2022-11-30T17:36:37.794Z,19.00
2022-11-30T17:39:44.032Z,19.30
2022-11-30T17:42:46.699Z,19.97
2022-11-30T17:45:49.666Z,20.30
2022-11-30T17:48:53.995Z,21.48
2022-11-30T17:51:58.056Z,21.60
2022-11-30T17:55:02.042Z,20.80
2022-11-30T17:58:04.734Z,20.27
2022-11-30T18:01:08.309Z,20.45
2022-11-30T18:04:11.131Z,20.52
2022-11-30T18:07:16.449Z,22.05
2022-11-30T18:10:20.321Z,19.80
2022-11-30T18:13:24.346Z,21.37
2022-11-30T18:16:30.418Z,21.05
2022-11-30T18:22:56.420Z,18.30
2022-11-30T18:25:59.127Z,20.57
2022-11-30T18:29:04.058Z,19.43
2022-11-30T18:32:09.244Z,19.63
2022-11-30T18:35:12.211Z,19.17
2022-11-30T18:38:16.698Z,20.40
2022-11-30T18:41:19.469Z,20.30
2022-11-30T18:44:23.546Z,20.13
2022-11-30T18:47:26.263Z,19.80
2022-11-30T18:50:31.070Z,19.70
2022-11-30T18:53:35.200Z,21.40
2022-11-30T18:56:40.803Z,19.73
2022-11-30T18:59:43.490Z,17.20
2022-11-30T19:02:48.474Z,18.33
2022-11-30T19:05:51.248Z,16.88
2022-11-30T19:08:56.687Z,18.30
2022-11-30T19:12:00.677Z,17.53
2022-11-30T19:15:04.761Z,20.60
2022-11-30T19:18:08.064Z,18.23
2022-11-30T19:21:13.599Z,18.67
2022-11-30T19:24:18.025Z,18.75
2022-11-30T19:27:21.984Z,17.53
2022-11-30T19:30:26.130Z,17.53
2022-11-30T19:33:30.138Z,19.45
2022-11-30T19:36:34.101Z,17.95
2022-11-30T19:39:38.131Z,18.25
2022-11-30T19:42:42.082Z,19.27
2022-11-30T19:45:44.798Z,17.67
2022-11-30T19:48:48.773Z,17.40
2022-11-30T19:51:51.460Z,16.85
2022-11-30T19:54:56.780Z,17.08
2022-11-30T19:57:59.469Z,17.03
2022-11-30T20:01:03.802Z,17.53
2022-11-30T20:04:06.692Z,16.05
2022-11-30T20:07:09.540Z,19.58
2022-11-30T20:10:14.453Z,19.48
2022-11-30T20:13:18.153Z,19.63
2022-11-30T20:16:23.427Z,18.67
2022-11-30T20:19:26.247Z,17.52
2022-11-30T20:22:30.499Z,17.80
2022-11-30T20:25:34.974Z,19.37
2022-11-30T20:28:41.967Z,17.17
2022-11-30T20:31:47.091Z,20.67
2022-11-30T20:34:50.005Z,17.95
2022-11-30T20:37:53.052Z,19.03
2022-11-30T20:40:57.396Z,17.90
2022-11-30T20:47:21.783Z,17.13
2022-11-30T20:50:25.902Z,16.70
2022-11-30T20:53:29.826Z,16.93
2022-11-30T20:56:35.184Z,16.57
2022-11-30T20:59:40.699Z,17.92
2022-11-30T21:02:44.686Z,19.80
2022-11-30T21:05:47.406Z,18.63
2022-11-30T21:08:51.396Z,19.70
2022-11-30T21:11:55.670Z,16.97
2022-11-30T21:14:59.829Z,17.58
2022-11-30T21:18:02.553Z,17.45
2022-11-30T21:21:08.257Z,18.58
2022-11-30T21:24:13.098Z,17.60
2022-11-30T21:27:18.490Z,17.63
2022-11-30T21:30:21.342Z,19.25
2022-11-30T21:33:25.352Z,18.73
2022-11-30T21:36:29.110Z,19.00
2022-11-30T21:39:33.709Z,17.40
2022-11-30T21:42:37.799Z,17.87
2022-11-30T21:45:41.713Z,18.13
2022-11-30T21:52:07.770Z,18.25
2022-11-30T21:55:12.097Z,19.33
2022-11-30T21:58:17.426Z,17.20
2022-11-30T22:01:22.372Z,19.23
2022-11-30T22:04:26.381Z,19.52
2022-11-30T22:07:32.518Z,18.92
2022-11-30T22:10:36.504Z,17.80
2022-11-30T22:13:42.294Z,18.57
2022-11-30T22:16:45.577Z,17.48
2022-11-30T22:19:49.726Z,18.85
2022-11-30T22:22:52.576Z,19.00
2022-11-30T22:25:56.525Z,17.17
2022-11-30T22:29:02.678Z,18.03
2022-11-30T22:32:07.190Z,17.73
2022-11-30T22:35:10.335Z,19.30
2022-11-30T22:38:16.023Z,18.63
2022-11-30T22:41:20.057Z,16.75
2022-11-30T22:44:25.479Z,18.10
2022-11-30T22:50:50.950Z,16.70
2022-11-30T22:53:54.558Z,16.77
2022-11-30T22:56:58.565Z,17.27
2022-11-30T23:00:02.584Z,18.52
2022-11-30T23:03:06.678Z,17.30
2022-11-30T23:06:10.809Z,17.97
2022-11-30T23:09:17.032Z,16.80
2022-11-30T23:12:43.340Z,18.05
2022-11-30T23:15:45.060Z,15.57
2022-11-30T23:18:50.873Z,16.30
2022-11-30T23:21:54.900Z,16.90
2022-11-30T23:24:57.583Z,15.33
2022-11-30T23:28:01.565Z,16.50
2022-11-30T23:31:07.158Z,16.77
2022-11-30T23:34:12.012Z,16.25
2022-11-30T23:37:15.997Z,16.80
2022-11-30T23:40:20.246Z,16.70
2022-11-30T23:43:24.198Z,15.82
2022-11-30T23:46:29.589Z,16.65
2022-11-30T23:49:32.589Z,15.35
2022-11-30T23:52:36.736Z,18.30
2022-11-30T23:55:39.433Z,17.73
2022-11-30T23:58:43.811Z,16.85
